createdAt,value
2024-03-11T00:00:26.063Z,11.60
2024-03-11T00:02:54.201Z,11.60
2024-03-11T00:05:22.002Z,11.50
2024-03-11T00:07:50.838Z,11.50
2024-03-11T00:10:20.125Z,11.50
2024-03-11T00:12:52.603Z,11.50
2024-03-11T00:15:23.338Z,11.50
2024-03-11T00:17:51.977Z,11.40
2024-03-11T00:20:22.092Z,11.50
2024-03-11T00:22:50.353Z,11.40
2024-03-11T00:25:17.486Z,11.40
2024-03-11T00:27:44.620Z,11.40
2024-03-11T00:30:13.135Z,11.30
2024-03-11T00:32:49.462Z,11.30
2024-03-11T00:35:18.099Z,11.30
2024-03-11T00:37:46.600Z,11.40
2024-03-11T00:40:14.893Z,11.40
2024-03-11T00:42:42.155Z,11.40
2024-03-11T00:45:13.128Z,11.40
2024-03-11T00:47:44.468Z,11.40
2024-03-11T00:50:15.006Z,11.40
2024-03-11T00:52:44.199Z,11.40
2024-03-11T00:55:14.699Z,11.40
2024-03-11T00:57:43.096Z,11.40
2024-03-11T01:00:13.728Z,11.40
2024-03-11T01:02:42.280Z,11.40
2024-03-11T01:05:10.502Z,11.50
2024-03-11T01:10:10.854Z,11.50
2024-03-11T01:12:38.131Z,11.50
2024-03-11T01:15:05.731Z,11.50
2024-03-11T01:17:32.765Z,11.50
2024-03-11T01:19:59.727Z,11.50
2024-03-11T01:22:26.696Z,11.40
2024-03-11T01:24:54.094Z,11.40
2024-03-11T01:27:21.768Z,11.40
2024-03-11T01:29:49.120Z,11.40
2024-03-11T01:32:17.460Z,11.40
2024-03-11T01:34:45.443Z,11.40
2024-03-11T01:37:13.045Z,11.40
2024-03-11T01:39:46.403Z,11.40
2024-03-11T01:42:18.380Z,11.40
2024-03-11T01:44:47.134Z,11.30
2024-03-11T01:47:16.168Z,11.30
2024-03-11T01:49:46.199Z,11.30
2024-03-11T01:52:20.067Z,11.30
2024-03-11T01:54:47.665Z,11.30
2024-03-11T01:57:17.645Z,11.30
2024-03-11T01:59:46.136Z,11.30
2024-03-11T02:02:13.831Z,11.20
2024-03-11T02:04:45.536Z,11.20
2024-03-11T02:07:17.273Z,11.20
2024-03-11T02:09:45.192Z,11.20
2024-03-11T02:12:19.980Z,11.20
2024-03-11T02:14:47.883Z,11.20
2024-03-11T02:17:16.647Z,11.10
2024-03-11T02:19:44.361Z,11.10
2024-03-11T02:22:13.229Z,11.00
2024-03-11T02:24:41.146Z,11.10
2024-03-11T02:27:09.070Z,11.00
2024-03-11T02:29:37.288Z,10.90
2024-03-11T02:32:04.679Z,10.90
2024-03-11T02:34:33.334Z,10.90
2024-03-11T02:37:02.812Z,11.00
2024-03-11T02:39:31.172Z,11.00
2024-03-11T02:41:58.084Z,11.00
2024-03-11T02:44:25.112Z,11.00
2024-03-11T02:46:52.492Z,11.00
2024-03-11T02:49:20.242Z,10.90
2024-03-11T02:51:47.649Z,10.90
2024-03-11T02:54:15.725Z,10.90
2024-03-11T02:56:42.871Z,10.90
2024-03-11T02:59:10.975Z,10.90
2024-03-11T03:01:38.861Z,10.90
2024-03-11T03:04:07.234Z,10.90
2024-03-11T03:06:37.570Z,10.90
2024-03-11T03:09:04.793Z,10.90
2024-03-11T03:11:35.440Z,10.80
2024-03-11T03:14:05.477Z,10.80
2024-03-11T03:16:32.892Z,10.90
2024-03-11T03:19:00.600Z,10.80
2024-03-11T03:21:27.651Z,10.80
2024-03-11T03:23:54.631Z,10.70
2024-03-11T03:26:21.752Z,10.70
2024-03-11T03:28:48.815Z,10.70
2024-03-11T03:31:15.887Z,10.60
2024-03-11T03:33:42.781Z,10.70
2024-03-11T03:36:10.347Z,10.60
2024-03-11T03:38:38.628Z,10.60
2024-03-11T03:41:05.936Z,10.70
2024-03-11T03:43:33.379Z,10.60
2024-03-11T03:46:00.295Z,10.60
2024-03-11T03:48:27.463Z,10.60
2024-03-11T03:50:56.654Z,10.60
2024-03-11T03:53:24.801Z,10.60
2024-03-11T03:55:51.763Z,10.60
2024-03-11T03:58:20.437Z,10.60
2024-03-11T04:00:47.673Z,10.50
2024-03-11T04:03:15.143Z,10.60
2024-03-11T04:05:42.890Z,10.60
2024-03-11T04:08:09.966Z,10.60
2024-03-11T04:10:37.145Z,10.50
2024-03-11T04:13:04.235Z,10.50
2024-03-11T04:15:31.595Z,10.50
2024-03-11T04:17:59.073Z,10.50
2024-03-11T04:20:29.932Z,10.60
2024-03-11T04:22:58.239Z,10.60
2024-03-11T04:25:32.704Z,10.70
2024-03-11T04:28:01.146Z,10.70
2024-03-11T04:30:33.450Z,10.70
2024-03-11T04:33:01.388Z,10.70
2024-03-11T04:35:31.372Z,10.60
2024-03-11T04:38:07.113Z,10.60
2024-03-11T04:40:41.690Z,10.60
2024-03-11T04:43:09.708Z,10.60
2024-03-11T04:45:39.969Z,10.60
2024-03-11T04:48:09.713Z,10.50
2024-03-11T04:50:42.007Z,10.60
2024-03-11T04:53:11.187Z,10.60
2024-03-11T04:55:38.745Z,10.60
2024-03-11T04:58:06.040Z,10.70
2024-03-11T05:00:33.553Z,10.70
2024-03-11T05:03:03.689Z,10.70
2024-03-11T05:05:42.293Z,10.60
2024-03-11T05:08:10.835Z,10.70
2024-03-11T05:10:39.333Z,10.70
2024-03-11T05:13:07.168Z,10.70
2024-03-11T05:15:34.361Z,10.70
2024-03-11T05:18:02.699Z,10.60
2024-03-11T05:20:30.124Z,10.60
2024-03-11T05:22:57.813Z,10.60
2024-03-11T05:25:24.802Z,10.50
2024-03-11T05:27:52.954Z,10.50
2024-03-11T05:30:20.426Z,10.50
2024-03-11T05:32:48.606Z,10.50
2024-03-11T05:35:16.427Z,10.50
2024-03-11T05:37:44.833Z,10.60
2024-03-11T05:40:15.754Z,10.60
2024-03-11T05:42:43.428Z,10.50
2024-03-11T05:45:13.793Z,10.50
2024-03-11T05:47:43.245Z,10.50
2024-03-11T05:50:18.583Z,10.50
2024-03-11T05:52:49.575Z,10.50
2024-03-11T05:55:17.249Z,10.50
2024-03-11T05:57:49.853Z,10.60
2024-03-11T06:00:18.238Z,10.60
2024-03-11T06:02:46.879Z,10.70
2024-03-11T06:05:14.947Z,10.70
2024-03-11T06:07:44.031Z,10.70
2024-03-11T06:10:11.768Z,10.80
2024-03-11T06:12:38.875Z,10.80
2024-03-11T06:15:06.481Z,10.80
2024-03-11T06:17:34.835Z,10.80
2024-03-11T06:20:08.177Z,10.80
2024-03-11T06:22:36.796Z,10.80
2024-03-11T06:25:05.315Z,10.80
2024-03-11T06:27:34.077Z,10.80
2024-03-11T06:30:06.310Z,10.80
2024-03-11T06:32:34.336Z,10.80
2024-03-11T06:35:02.347Z,10.70
2024-03-11T06:37:31.896Z,10.70
2024-03-11T06:39:58.791Z,10.80
2024-03-11T06:42:25.666Z,10.80
2024-03-11T06:44:53.421Z,10.70
2024-03-11T06:47:20.384Z,10.80
2024-03-11T06:49:47.388Z,10.80
2024-03-11T06:52:14.477Z,10.90
2024-03-11T06:54:42.281Z,10.90
2024-03-11T06:57:11.772Z,11.00
2024-03-11T06:59:43.708Z,11.00
2024-03-11T07:02:10.653Z,11.00
2024-03-11T07:04:38.177Z,11.10
2024-03-11T07:07:07.625Z,11.10
2024-03-11T07:09:35.416Z,11.10
2024-03-11T07:12:02.751Z,11.20
2024-03-11T07:14:29.752Z,11.20
2024-03-11T07:17:00.650Z,11.30
2024-03-11T07:19:31.296Z,11.40
2024-03-11T07:22:00.261Z,11.50
2024-03-11T07:24:28.496Z,11.60
2024-03-11T07:26:55.491Z,11.80
2024-03-11T07:29:23.638Z,11.90
2024-03-11T07:31:51.681Z,12.00
2024-03-11T07:34:19.152Z,12.20
2024-03-11T07:36:49.169Z,12.30
2024-03-11T07:39:16.200Z,12.40
2024-03-11T07:41:47.561Z,12.50
2024-03-11T07:44:15.216Z,12.50
2024-03-11T07:46:42.162Z,12.50
2024-03-11T07:49:13.139Z,12.50
2024-03-11T07:51:42.043Z,12.60
2024-03-11T07:54:13.068Z,12.70
2024-03-11T07:56:40.801Z,12.70
2024-03-11T07:59:08.961Z,12.70
2024-03-11T08:01:35.919Z,12.70
2024-03-11T08:04:03.908Z,12.70
2024-03-11T08:06:31.914Z,12.80
2024-03-11T08:08:59.599Z,12.70
2024-03-11T08:11:29.833Z,12.90
2024-03-11T08:13:57.216Z,12.90
2024-03-11T08:16:24.215Z,13.00
2024-03-11T08:18:54.562Z,13.00
2024-03-11T08:21:21.908Z,13.10
2024-03-11T08:23:48.791Z,13.20
2024-03-11T08:26:18.392Z,13.40
2024-03-11T08:28:45.420Z,13.50
2024-03-11T08:31:13.334Z,13.80
2024-03-11T08:33:41.180Z,13.90
2024-03-11T08:36:09.522Z,13.90
2024-03-11T08:38:39.506Z,14.00
2024-03-11T08:41:06.797Z,14.20
2024-03-11T08:43:34.077Z,14.10
2024-03-11T08:46:01.106Z,14.10
2024-03-11T08:48:28.158Z,14.10
2024-03-11T08:51:03.025Z,14.20
2024-03-11T08:53:30.200Z,14.00
2024-03-11T08:55:57.680Z,14.30
2024-03-11T08:58:26.204Z,14.30
2024-03-11T09:00:54.750Z,14.30
2024-03-11T09:03:22.297Z,14.10
2024-03-11T09:05:51.117Z,14.30
2024-03-11T09:08:19.117Z,14.40
2024-03-11T09:10:46.594Z,14.40
2024-03-11T09:13:13.803Z,14.50
2024-03-11T09:15:41.372Z,14.50
2024-03-11T09:18:11.840Z,14.30
2024-03-11T09:20:38.698Z,14.20
2024-03-11T09:23:08.696Z,14.20
2024-03-11T09:25:38.275Z,14.10
2024-03-11T09:28:08.518Z,14.10
2024-03-11T09:30:40.109Z,14.10
2024-03-11T09:33:12.986Z,13.80
2024-03-11T09:35:40.558Z,13.90
2024-03-11T09:38:08.633Z,13.80
2024-03-11T09:40:38.591Z,13.70
2024-03-11T09:43:07.658Z,13.70
2024-03-11T09:45:36.867Z,13.80
2024-03-11T09:48:08.630Z,13.80
2024-03-11T09:50:38.791Z,13.70
2024-03-11T09:53:17.083Z,13.80
2024-03-11T09:55:46.690Z,13.70
2024-03-11T09:58:18.035Z,13.60
2024-03-11T10:00:51.902Z,13.70
2024-03-11T10:03:26.639Z,13.70
2024-03-11T10:06:05.379Z,13.80
2024-03-11T10:08:33.753Z,13.90
2024-03-11T10:11:19.465Z,14.00
2024-03-11T10:13:47.297Z,14.00
2024-03-11T10:16:23.394Z,14.10
2024-03-11T10:18:54.123Z,14.20
2024-03-11T10:21:21.611Z,14.30
2024-03-11T10:23:52.339Z,14.20
2024-03-11T10:26:19.584Z,14.00
2024-03-11T10:28:50.892Z,14.20
2024-03-11T10:31:35.411Z,14.10
2024-03-11T10:34:12.459Z,14.10
2024-03-11T10:36:50.346Z,14.10
2024-03-11T10:39:27.418Z,14.10
2024-03-11T10:41:54.927Z,14.30
2024-03-11T10:44:30.860Z,14.40
2024-03-11T10:47:19.989Z,14.40
2024-03-11T10:49:49.742Z,14.50
2024-03-11T10:52:22.401Z,14.50
2024-03-11T10:57:41.370Z,14.50
2024-03-11T11:00:23.287Z,14.50
2024-03-11T11:03:09.877Z,14.40
2024-03-11T11:05:56.145Z,14.30
2024-03-11T11:08:33.809Z,14.40
2024-03-11T11:11:02.422Z,14.50
2024-03-11T11:13:36.396Z,14.50
2024-03-11T11:16:05.472Z,14.60
2024-03-11T11:18:38.903Z,14.60
2024-03-11T11:21:12.279Z,14.50
2024-03-11T11:23:42.278Z,14.40
2024-03-11T11:26:09.560Z,14.40
2024-03-11T11:28:41.388Z,14.60
2024-03-11T11:31:16.922Z,14.70
2024-03-11T11:33:58.236Z,14.70
2024-03-11T11:36:34.801Z,14.60
2024-03-11T11:39:25.742Z,14.70
2024-03-11T11:41:55.734Z,15.00
2024-03-11T11:44:30.246Z,15.00
2024-03-11T11:47:07.294Z,15.00
2024-03-11T11:49:37.404Z,15.20
2024-03-11T11:52:08.970Z,15.40
2024-03-11T11:54:44.807Z,15.40
2024-03-11T11:57:18.854Z,15.50
2024-03-11T11:59:59.979Z,15.80
2024-03-11T12:02:30.420Z,16.00
2024-03-11T12:05:02.860Z,16.00
2024-03-11T12:07:31.106Z,16.20
2024-03-11T12:10:02.225Z,16.20
2024-03-11T12:12:33.479Z,16.40
2024-03-11T12:15:04.465Z,17.00
2024-03-11T12:17:35.733Z,17.90
2024-03-11T12:20:26.698Z,17.80
2024-03-11T12:22:58.743Z,17.40
2024-03-11T12:25:29.529Z,17.60
2024-03-11T12:28:03.172Z,18.10
2024-03-11T12:30:40.500Z,18.50
2024-03-11T12:33:15.924Z,18.30
2024-03-11T12:35:45.751Z,18.20
2024-03-11T12:38:15.185Z,17.60
2024-03-11T12:40:48.959Z,17.60
2024-03-11T12:43:23.942Z,18.00
2024-03-11T12:46:12.028Z,17.70
2024-03-11T12:48:39.552Z,17.10
2024-03-11T12:51:08.923Z,16.80
2024-03-11T12:53:41.198Z,17.10
2024-03-11T12:56:12.771Z,17.10
2024-03-11T12:58:43.987Z,17.10
2024-03-11T13:01:17.139Z,17.00
2024-03-11T13:03:47.948Z,17.00
2024-03-11T13:06:21.301Z,16.60
2024-03-11T13:08:51.177Z,16.60
2024-03-11T13:11:19.915Z,16.80
2024-03-11T13:13:48.024Z,16.80
2024-03-11T13:16:18.430Z,17.00
2024-03-11T13:18:50.103Z,17.00
2024-03-11T13:21:22.142Z,16.90
2024-03-11T13:23:58.789Z,16.80
2024-03-11T13:26:25.822Z,16.80
2024-03-11T13:28:56.082Z,16.90
2024-03-11T13:31:23.563Z,17.10
2024-03-11T13:33:51.800Z,17.30
2024-03-11T13:36:20.168Z,17.40
2024-03-11T13:38:48.589Z,17.70
2024-03-11T13:41:16.175Z,17.70
2024-03-11T13:43:43.252Z,17.80
2024-03-11T13:46:15.985Z,17.90
2024-03-11T13:48:44.406Z,17.90
2024-03-11T13:51:14.098Z,17.90
2024-03-11T13:53:44.430Z,17.90
2024-03-11T13:56:12.350Z,17.50
2024-03-11T13:58:39.477Z,17.30
2024-03-11T14:01:09.702Z,17.20
2024-03-11T14:03:37.265Z,17.30
2024-03-11T14:06:04.921Z,17.40
2024-03-11T14:08:31.963Z,17.20
2024-03-11T14:10:59.601Z,17.20
2024-03-11T14:13:26.572Z,17.20
2024-03-11T14:15:54.658Z,17.10
2024-03-11T14:18:22.359Z,17.10
2024-03-11T14:20:49.458Z,17.00
2024-03-11T14:23:16.544Z,16.80
2024-03-11T14:25:44.159Z,16.70
2024-03-11T14:28:13.439Z,16.60
2024-03-11T14:30:42.336Z,16.50
2024-03-11T14:33:10.129Z,16.40
2024-03-11T14:35:40.182Z,16.40
2024-03-11T14:38:11.474Z,16.50
2024-03-11T14:40:45.469Z,16.70
2024-03-11T14:43:14.987Z,16.70
2024-03-11T14:45:42.428Z,16.60
2024-03-11T14:48:15.922Z,16.60
2024-03-11T14:50:46.709Z,16.60
2024-03-11T14:53:17.511Z,16.70
2024-03-11T14:55:47.060Z,16.80
2024-03-11T14:58:20.086Z,16.90
2024-03-11T15:01:09.484Z,16.70
2024-03-11T15:03:38.399Z,16.60
2024-03-11T15:06:11.218Z,16.60
2024-03-11T15:08:38.795Z,16.50
2024-03-11T15:11:07.258Z,16.50
2024-03-11T15:13:34.750Z,16.50
2024-03-11T15:16:05.145Z,16.70
2024-03-11T15:18:34.477Z,16.80
2024-03-11T15:21:03.315Z,16.90
2024-03-11T15:23:31.632Z,17.10
2024-03-11T15:25:58.543Z,17.20
2024-03-11T15:28:27.111Z,17.20
2024-03-11T15:30:55.970Z,17.20
2024-03-11T15:33:34.416Z,17.30
2024-03-11T15:36:01.805Z,17.30
2024-03-11T15:38:30.043Z,17.20
2024-03-11T15:40:57.052Z,17.10
2024-03-11T15:43:26.209Z,17.00
2024-03-11T15:45:53.304Z,17.00
2024-03-11T15:48:20.475Z,16.90
2024-03-11T15:50:50.823Z,16.80
2024-03-11T15:53:19.766Z,16.70
2024-03-11T15:55:48.097Z,16.60
2024-03-11T15:58:19.798Z,16.50
2024-03-11T16:00:46.867Z,16.40
2024-03-11T16:03:15.805Z,16.40
2024-03-11T16:05:46.373Z,16.20
2024-03-11T16:08:17.881Z,16.20
2024-03-11T16:10:47.214Z,16.10
2024-03-11T16:13:21.305Z,15.90
2024-03-11T16:15:48.496Z,15.80
2024-03-11T16:18:18.008Z,15.80
2024-03-11T16:20:45.185Z,15.70
2024-03-11T16:23:15.710Z,15.50
2024-03-11T16:25:44.266Z,15.40
2024-03-11T16:28:11.687Z,15.30
2024-03-11T16:30:39.323Z,15.30
2024-03-11T16:33:06.488Z,15.20
2024-03-11T16:35:35.877Z,15.10
2024-03-11T16:38:08.167Z,15.10
2024-03-11T16:40:35.592Z,15.10
2024-03-11T16:43:11.626Z,15.00
2024-03-11T16:45:39.963Z,14.90
2024-03-11T16:48:07.666Z,14.90
2024-03-11T16:50:34.717Z,14.80
2024-03-11T16:53:02.291Z,14.80
2024-03-11T16:55:32.456Z,14.80
2024-03-11T16:58:00.268Z,14.70
2024-03-11T17:00:29.487Z,14.60
2024-03-11T17:02:56.950Z,14.60
2024-03-11T17:05:25.704Z,14.60
2024-03-11T17:07:55.784Z,14.50
2024-03-11T17:10:25.702Z,14.50
2024-03-11T17:12:53.004Z,14.40
2024-03-11T17:15:21.944Z,14.40
2024-03-11T17:17:53.257Z,14.40
2024-03-11T17:20:40.914Z,14.40
2024-03-11T17:23:11.514Z,14.30
2024-03-11T17:25:39.933Z,14.30
2024-03-11T17:28:14.208Z,14.30
2024-03-11T17:30:47.553Z,14.30
2024-03-11T17:33:22.866Z,14.20
2024-03-11T17:35:51.578Z,14.20
2024-03-11T17:38:33.513Z,14.20
2024-03-11T17:41:00.741Z,14.10
2024-03-11T17:43:31.660Z,14.10
2024-03-11T17:46:00.256Z,14.00
2024-03-11T17:48:29.437Z,14.00
2024-03-11T17:50:58.496Z,13.90
2024-03-11T17:53:25.895Z,13.90
2024-03-11T17:55:55.416Z,13.80
2024-03-11T17:58:25.970Z,13.70
2024-03-11T18:00:54.128Z,13.70
2024-03-11T18:03:21.520Z,13.70
2024-03-11T18:05:52.649Z,13.70
2024-03-11T18:08:22.313Z,13.70
2024-03-11T18:10:50.607Z,13.70
2024-03-11T18:13:17.852Z,13.70
2024-03-11T18:15:48.605Z,13.60
2024-03-11T18:18:21.158Z,13.60
2024-03-11T18:20:49.555Z,13.60
2024-03-11T18:23:19.046Z,13.50
2024-03-11T18:25:54.030Z,13.50
2024-03-11T18:28:23.292Z,13.50
2024-03-11T18:30:50.975Z,13.50
2024-03-11T18:33:19.849Z,13.50
2024-03-11T18:35:47.534Z,13.50
2024-03-11T18:38:17.177Z,13.50
2024-03-11T18:40:51.250Z,13.40
2024-03-11T18:43:20.396Z,13.30
2024-03-11T18:45:48.025Z,13.30
2024-03-11T18:48:15.258Z,13.30
2024-03-11T18:50:42.395Z,13.30
2024-03-11T18:53:11.473Z,13.20
2024-03-11T18:55:38.738Z,13.10
2024-03-11T18:58:05.878Z,13.10
2024-03-11T19:00:33.638Z,13.10
2024-03-11T19:03:02.704Z,13.00
2024-03-11T19:05:31.282Z,13.00
2024-03-11T19:07:58.928Z,13.00
2024-03-11T19:10:28.123Z,13.00
2024-03-11T19:12:57.202Z,12.90
2024-03-11T19:15:27.294Z,12.90
2024-03-11T19:17:55.638Z,12.90
2024-03-11T19:20:27.011Z,12.90
2024-03-11T19:22:59.262Z,12.90
2024-03-11T19:25:30.515Z,12.80
2024-03-11T19:27:59.758Z,12.80
2024-03-11T19:30:33.324Z,12.80
2024-03-11T19:33:02.830Z,12.70
2024-03-11T19:35:30.641Z,12.70
2024-03-11T19:38:29.615Z,12.70
2024-03-11T19:41:15.537Z,12.70
2024-03-11T19:44:14.136Z,12.70
2024-03-11T19:47:17.949Z,12.70
2024-03-11T19:50:23.412Z,12.70
2024-03-11T19:53:21.320Z,12.60
2024-03-11T19:56:15.124Z,12.60
2024-03-11T19:59:10.293Z,12.60
2024-03-11T20:02:07.127Z,12.50
2024-03-11T20:04:44.339Z,12.40
2024-03-11T20:07:22.127Z,12.30
2024-03-11T20:10:18.103Z,12.30
2024-03-11T20:13:13.198Z,12.30
2024-03-11T20:15:54.652Z,12.30
2024-03-11T20:18:45.678Z,12.30
2024-03-11T20:21:51.719Z,12.40
2024-03-11T20:24:59.948Z,12.40
2024-03-11T20:27:42.196Z,12.40
2024-03-11T20:30:18.887Z,12.40
2024-03-11T20:33:08.149Z,12.30
2024-03-11T20:35:35.690Z,12.40
2024-03-11T20:38:06.334Z,12.30
2024-03-11T20:40:34.656Z,12.30
2024-03-11T20:43:01.851Z,12.40
2024-03-11T20:45:29.028Z,12.40
2024-03-11T20:47:56.487Z,12.30
2024-03-11T20:50:23.576Z,12.30
2024-03-11T20:52:51.215Z,12.30
2024-03-11T20:55:18.267Z,12.20
2024-03-11T20:57:45.473Z,12.20
2024-03-11T21:00:31.864Z,12.20
2024-03-11T21:02:58.826Z,12.20
2024-03-11T21:05:25.849Z,12.10
2024-03-11T21:07:53.390Z,12.10
2024-03-11T21:10:20.620Z,12.10
2024-03-11T21:12:47.965Z,12.10
2024-03-11T21:15:16.630Z,12.10
2024-03-11T21:17:44.922Z,12.00
2024-03-11T21:20:23.604Z,11.90
2024-03-11T21:23:05.268Z,11.90
2024-03-11T21:25:50.608Z,12.00
2024-03-11T21:28:28.264Z,11.90
2024-03-11T21:30:55.573Z,11.90
2024-03-11T21:33:29.440Z,11.90
2024-03-11T21:35:56.630Z,11.90
2024-03-11T21:38:30.511Z,11.90
2024-03-11T21:40:59.057Z,11.80
2024-03-11T21:43:27.191Z,11.80
2024-03-11T21:45:54.350Z,11.80
2024-03-11T21:48:21.941Z,11.80
2024-03-11T21:50:49.259Z,11.80
2024-03-11T21:53:19.561Z,11.70
2024-03-11T21:55:48.534Z,11.70
2024-03-11T21:58:17.717Z,11.70
2024-03-11T22:00:44.962Z,11.70
2024-03-11T22:03:16.624Z,11.70
2024-03-11T22:05:43.534Z,11.70
2024-03-11T22:08:11.556Z,11.70
2024-03-11T22:10:38.844Z,11.70
2024-03-11T22:13:06.119Z,11.80
2024-03-11T22:15:33.780Z,11.80
2024-03-11T22:18:01.285Z,11.70
2024-03-11T22:20:29.856Z,11.70
2024-03-11T22:22:57.359Z,11.60
2024-03-11T22:25:25.660Z,11.60
2024-03-11T22:27:52.989Z,11.50
2024-03-11T22:30:20.113Z,11.50
2024-03-11T22:32:47.376Z,11.50
2024-03-11T22:35:16.148Z,11.40
2024-03-11T22:37:43.547Z,11.40
2024-03-11T22:40:10.973Z,11.40
2024-03-11T22:42:38.488Z,11.40
2024-03-11T22:45:06.539Z,11.40
2024-03-11T22:47:34.260Z,11.40
2024-03-11T22:50:01.324Z,11.50
2024-03-11T22:52:28.242Z,11.40
2024-03-11T22:54:55.981Z,11.40
2024-03-11T22:57:23.122Z,11.30
2024-03-11T22:59:50.225Z,11.30
2024-03-11T23:02:18.001Z,11.20
2024-03-11T23:04:50.470Z,11.20
2024-03-11T23:07:20.980Z,11.20
2024-03-11T23:09:48.669Z,11.20
2024-03-11T23:12:16.526Z,11.10
2024-03-11T23:14:44.582Z,11.20
2024-03-11T23:17:12.922Z,11.10
2024-03-11T23:19:49.726Z,11.10
2024-03-11T23:22:20.064Z,11.10
2024-03-11T23:24:47.506Z,11.10
2024-03-11T23:27:14.942Z,11.10
2024-03-11T23:29:43.515Z,11.20
2024-03-11T23:32:11.534Z,11.20
2024-03-11T23:34:39.542Z,11.10
2024-03-11T23:37:07.780Z,11.20
2024-03-11T23:39:35.267Z,11.20
2024-03-11T23:42:02.965Z,11.20
2024-03-11T23:44:30.978Z,11.10
2024-03-11T23:46:58.701Z,11.10
2024-03-11T23:49:25.640Z,11.00
2024-03-11T23:51:53.030Z,11.00
2024-03-11T23:54:20.188Z,11.00
2024-03-11T23:56:47.211Z,11.00
2024-03-11T23:59:14.170Z,11.00
